sensor_id;sensor_type;location;lat;lon;timestamp;P1;durP1;ratioP1;P2;durP2;ratioP2
52866;SDS011;38739;53.324;6.862;2024-01-10T00:01:31;50.97;;;28.58;;
52866;SDS011;38739;53.324;6.862;2024-01-10T00:03:57;53.67;;;29.38;;
52866;SDS011;38739;53.324;6.862;2024-01-10T00:06:23;51.97;;;28.38;;
52866;SDS011;38739;53.324;6.862;2024-01-10T00:08:49;53.13;;;29.65;;
52866;SDS011;38739;53.324;6.862;2024-01-10T00:11:14;52.33;;;29.20;;
52866;SDS011;38739;53.324;6.862;2024-01-10T00:13:40;56.85;;;30.67;;
52866;SDS011;38739;53.324;6.862;2024-01-10T00:16:06;55.28;;;30.20;;
52866;SDS011;38739;53.324;6.862;2024-01-10T00:18:32;54.45;;;29.58;;
52866;SDS011;38739;53.324;6.862;2024-01-10T00:20:58;50.83;;;28.58;;
52866;SDS011;38739;53.324;6.862;2024-01-10T00:23:24;54.33;;;29.70;;
52866;SDS011;38739;53.324;6.862;2024-01-10T00:25:49;55.08;;;28.98;;
52866;SDS011;38739;53.324;6.862;2024-01-10T00:28:15;55.38;;;28.88;;
52866;SDS011;38739;53.324;6.862;2024-01-10T00:30:44;53.40;;;28.05;;
52866;SDS011;38739;53.324;6.862;2024-01-10T00:33:12;55.28;;;28.42;;
52866;SDS011;38739;53.324;6.862;2024-01-10T00:35:38;54.65;;;28.58;;
52866;SDS011;38739;53.324;6.862;2024-01-10T00:38:04;52.55;;;27.63;;
52866;SDS011;38739;53.324;6.862;2024-01-10T00:40:30;53.33;;;28.40;;
52866;SDS011;38739;53.324;6.862;2024-01-10T00:42:55;50.30;;;26.85;;
52866;SDS011;38739;53.324;6.862;2024-01-10T00:45:21;48.50;;;26.58;;
52866;SDS011;38739;53.324;6.862;2024-01-10T00:47:50;54.42;;;26.75;;
52866;SDS011;38739;53.324;6.862;2024-01-10T00:50:15;49.60;;;26.77;;
52866;SDS011;38739;53.324;6.862;2024-01-10T00:52:44;51.45;;;27.17;;
52866;SDS011;38739;53.324;6.862;2024-01-10T00:55:10;50.08;;;27.10;;
52866;SDS011;38739;53.324;6.862;2024-01-10T00:57:36;49.20;;;26.95;;
52866;SDS011;38739;53.324;6.862;2024-01-10T01:00:04;50.20;;;26.02;;
52866;SDS011;38739;53.324;6.862;2024-01-10T01:02:34;48.50;;;26.60;;
52866;SDS011;38739;53.324;6.862;2024-01-10T01:05:00;48.60;;;26.17;;
52866;SDS011;38739;53.324;6.862;2024-01-10T01:07:27;47.70;;;26.38;;
52866;SDS011;38739;53.324;6.862;2024-01-10T01:09:52;47.28;;;26.70;;
52866;SDS011;38739;53.324;6.862;2024-01-10T01:12:18;51.40;;;28.35;;
52866;SDS011;38739;53.324;6.862;2024-01-10T01:14:44;50.60;;;27.02;;
52866;SDS011;38739;53.324;6.862;2024-01-10T01:17:10;55.30;;;29.77;;
52866;SDS011;38739;53.324;6.862;2024-01-10T01:19:35;54.60;;;30.13;;
52866;SDS011;38739;53.324;6.862;2024-01-10T01:22:01;56.67;;;29.52;;
52866;SDS011;38739;53.324;6.862;2024-01-10T01:24:27;61.63;;;32.28;;
52866;SDS011;38739;53.324;6.862;2024-01-10T01:26:53;58.75;;;30.55;;
52866;SDS011;38739;53.324;6.862;2024-01-10T01:29:18;61.55;;;32.30;;
52866;SDS011;38739;53.324;6.862;2024-01-10T01:31:45;64.85;;;33.63;;
52866;SDS011;38739;53.324;6.862;2024-01-10T01:34:11;68.10;;;34.42;;
52866;SDS011;38739;53.324;6.862;2024-01-10T01:36:37;67.03;;;34.05;;
52866;SDS011;38739;53.324;6.862;2024-01-10T01:39:02;65.85;;;34.58;;
52866;SDS011;38739;53.324;6.862;2024-01-10T01:41:28;62.65;;;33.45;;
52866;SDS011;38739;53.324;6.862;2024-01-10T01:43:54;70.43;;;34.30;;
52866;SDS011;38739;53.324;6.862;2024-01-10T01:46:20;65.07;;;33.80;;
52866;SDS011;38739;53.324;6.862;2024-01-10T01:48:46;65.15;;;34.03;;
52866;SDS011;38739;53.324;6.862;2024-01-10T01:51:12;62.20;;;32.58;;
52866;SDS011;38739;53.324;6.862;2024-01-10T01:53:39;61.78;;;33.13;;
52866;SDS011;38739;53.324;6.862;2024-01-10T01:56:07;61.35;;;32.63;;
52866;SDS011;38739;53.324;6.862;2024-01-10T01:58:34;63.00;;;32.80;;
52866;SDS011;38739;53.324;6.862;2024-01-10T02:01:04;59.45;;;32.30;;
52866;SDS011;38739;53.324;6.862;2024-01-10T02:03:30;63.95;;;32.15;;
52866;SDS011;38739;53.324;6.862;2024-01-10T02:05:57;62.20;;;32.28;;
52866;SDS011;38739;53.324;6.862;2024-01-10T02:08:24;61.97;;;32.90;;
52866;SDS011;38739;53.324;6.862;2024-01-10T02:10:49;61.20;;;32.75;;
52866;SDS011;38739;53.324;6.862;2024-01-10T02:13:16;60.47;;;32.58;;
52866;SDS011;38739;53.324;6.862;2024-01-10T02:15:43;61.78;;;31.70;;
52866;SDS011;38739;53.324;6.862;2024-01-10T02:18:09;58.97;;;31.67;;
52866;SDS011;38739;53.324;6.862;2024-01-10T02:20:39;58.55;;;32.50;;
52866;SDS011;38739;53.324;6.862;2024-01-10T02:23:07;62.80;;;33.17;;
52866;SDS011;38739;53.324;6.862;2024-01-10T02:25:34;61.03;;;31.80;;
52866;SDS011;38739;53.324;6.862;2024-01-10T02:28:00;60.47;;;32.58;;
52866;SDS011;38739;53.324;6.862;2024-01-10T02:30:25;62.70;;;32.67;;
52866;SDS011;38739;53.324;6.862;2024-01-10T02:32:51;61.95;;;32.60;;
52866;SDS011;38739;53.324;6.862;2024-01-10T02:35:17;61.13;;;32.10;;
52866;SDS011;38739;53.324;6.862;2024-01-10T02:37:46;57.97;;;30.88;;
52866;SDS011;38739;53.324;6.862;2024-01-10T02:40:11;57.53;;;30.75;;
52866;SDS011;38739;53.324;6.862;2024-01-10T02:42:37;61.95;;;33.22;;
52866;SDS011;38739;53.324;6.862;2024-01-10T02:45:04;62.08;;;31.67;;
52866;SDS011;38739;53.324;6.862;2024-01-10T02:47:30;57.30;;;30.83;;
52866;SDS011;38739;53.324;6.862;2024-01-10T02:49:56;57.58;;;31.40;;
52866;SDS011;38739;53.324;6.862;2024-01-10T02:52:21;62.78;;;33.53;;
52866;SDS011;38739;53.324;6.862;2024-01-10T02:54:47;62.17;;;32.30;;
52866;SDS011;38739;53.324;6.862;2024-01-10T02:57:13;61.90;;;33.22;;
52866;SDS011;38739;53.324;6.862;2024-01-10T02:59:38;58.28;;;31.88;;
52866;SDS011;38739;53.324;6.862;2024-01-10T03:02:04;62.45;;;32.38;;
52866;SDS011;38739;53.324;6.862;2024-01-10T03:04:30;62.35;;;32.75;;
52866;SDS011;38739;53.324;6.862;2024-01-10T03:06:56;61.55;;;32.45;;
52866;SDS011;38739;53.324;6.862;2024-01-10T03:09:22;59.80;;;31.77;;
52866;SDS011;38739;53.324;6.862;2024-01-10T03:11:48;66.40;;;32.85;;
52866;SDS011;38739;53.324;6.862;2024-01-10T03:14:14;64.72;;;33.55;;
52866;SDS011;38739;53.324;6.862;2024-01-10T03:16:40;62.78;;;32.65;;
52866;SDS011;38739;53.324;6.862;2024-01-10T03:19:05;62.33;;;31.83;;
52866;SDS011;38739;53.324;6.862;2024-01-10T03:21:31;61.72;;;32.22;;
52866;SDS011;38739;53.324;6.862;2024-01-10T03:23:58;60.03;;;32.35;;
52866;SDS011;38739;53.324;6.862;2024-01-10T03:26:24;61.05;;;32.10;;
52866;SDS011;38739;53.324;6.862;2024-01-10T03:28:51;57.55;;;30.77;;
52866;SDS011;38739;53.324;6.862;2024-01-10T03:31:17;55.70;;;30.90;;
52866;SDS011;38739;53.324;6.862;2024-01-10T03:33:43;56.20;;;30.17;;
52866;SDS011;38739;53.324;6.862;2024-01-10T03:36:11;55.70;;;30.98;;
52866;SDS011;38739;53.324;6.862;2024-01-10T03:38:38;56.42;;;31.20;;
52866;SDS011;38739;53.324;6.862;2024-01-10T03:41:04;57.40;;;30.13;;
52866;SDS011;38739;53.324;6.862;2024-01-10T03:43:30;56.95;;;30.60;;
52866;SDS011;38739;53.324;6.862;2024-01-10T03:45:59;57.97;;;30.98;;
52866;SDS011;38739;53.324;6.862;2024-01-10T03:48:25;57.78;;;31.25;;
52866;SDS011;38739;53.324;6.862;2024-01-10T03:50:50;58.58;;;32.05;;
52866;SDS011;38739;53.324;6.862;2024-01-10T03:53:16;61.35;;;32.00;;
52866;SDS011;38739;53.324;6.862;2024-01-10T03:55:42;61.70;;;31.77;;
52866;SDS011;38739;53.324;6.862;2024-01-10T03:58:08;62.85;;;32.28;;
52866;SDS011;38739;53.324;6.862;2024-01-10T04:00:33;63.58;;;32.38;;
52866;SDS011;38739;53.324;6.862;2024-01-10T04:02:59;61.42;;;32.40;;
52866;SDS011;38739;53.324;6.862;2024-01-10T04:05:25;56.75;;;30.80;;
52866;SDS011;38739;53.324;6.862;2024-01-10T04:07:51;56.53;;;29.92;;
52866;SDS011;38739;53.324;6.862;2024-01-10T04:10:18;59.72;;;31.58;;
52866;SDS011;38739;53.324;6.862;2024-01-10T04:12:44;60.78;;;32.10;;
52866;SDS011;38739;53.324;6.862;2024-01-10T04:15:10;61.45;;;33.60;;
52866;SDS011;38739;53.324;6.862;2024-01-10T04:17:36;62.95;;;34.28;;
52866;SDS011;38739;53.324;6.862;2024-01-10T04:20:02;67.45;;;34.72;;
52866;SDS011;38739;53.324;6.862;2024-01-10T04:22:28;65.57;;;35.70;;
52866;SDS011;38739;53.324;6.862;2024-01-10T04:24:55;67.50;;;36.00;;
52866;SDS011;38739;53.324;6.862;2024-01-10T04:27:22;68.50;;;36.40;;
52866;SDS011;38739;53.324;6.862;2024-01-10T04:29:48;70.65;;;36.83;;
52866;SDS011;38739;53.324;6.862;2024-01-10T04:32:13;65.85;;;35.13;;
52866;SDS011;38739;53.324;6.862;2024-01-10T04:34:39;66.47;;;35.00;;
52866;SDS011;38739;53.324;6.862;2024-01-10T04:37:05;60.45;;;32.80;;
52866;SDS011;38739;53.324;6.862;2024-01-10T04:39:32;58.85;;;32.95;;
52866;SDS011;38739;53.324;6.862;2024-01-10T04:41:59;60.40;;;32.20;;
52866;SDS011;38739;53.324;6.862;2024-01-10T04:44:25;57.70;;;32.15;;
52866;SDS011;38739;53.324;6.862;2024-01-10T04:46:50;63.05;;;33.35;;
52866;SDS011;38739;53.324;6.862;2024-01-10T04:49:16;61.97;;;33.28;;
52866;SDS011;38739;53.324;6.862;2024-01-10T04:51:42;64.32;;;34.22;;
52866;SDS011;38739;53.324;6.862;2024-01-10T04:54:08;65.55;;;34.15;;
52866;SDS011;38739;53.324;6.862;2024-01-10T04:56:34;64.90;;;35.03;;
52866;SDS011;38739;53.324;6.862;2024-01-10T04:59:01;67.97;;;34.75;;
52866;SDS011;38739;53.324;6.862;2024-01-10T05:01:28;70.55;;;37.03;;
52866;SDS011;38739;53.324;6.862;2024-01-10T05:03:54;71.82;;;36.42;;
52866;SDS011;38739;53.324;6.862;2024-01-10T05:06:20;72.47;;;35.50;;
52866;SDS011;38739;53.324;6.862;2024-01-10T05:08:45;69.75;;;36.17;;
52866;SDS011;38739;53.324;6.862;2024-01-10T05:11:11;74.72;;;36.40;;
52866;SDS011;38739;53.324;6.862;2024-01-10T05:13:39;69.72;;;36.15;;
52866;SDS011;38739;53.324;6.862;2024-01-10T05:16:05;69.32;;;35.40;;
52866;SDS011;38739;53.324;6.862;2024-01-10T05:18:31;71.53;;;36.08;;
52866;SDS011;38739;53.324;6.862;2024-01-10T05:20:56;70.53;;;35.28;;
52866;SDS011;38739;53.324;6.862;2024-01-10T05:23:23;69.28;;;35.55;;
52866;SDS011;38739;53.324;6.862;2024-01-10T05:25:49;68.85;;;35.80;;
52866;SDS011;38739;53.324;6.862;2024-01-10T05:28:15;68.30;;;35.63;;
52866;SDS011;38739;53.324;6.862;2024-01-10T05:30:41;65.63;;;33.85;;
52866;SDS011;38739;53.324;6.862;2024-01-10T05:33:08;62.30;;;33.10;;
52866;SDS011;38739;53.324;6.862;2024-01-10T05:35:34;62.40;;;33.42;;
52866;SDS011;38739;53.324;6.862;2024-01-10T05:38:01;65.10;;;32.33;;
52866;SDS011;38739;53.324;6.862;2024-01-10T05:40:27;62.60;;;32.10;;
52866;SDS011;38739;53.324;6.862;2024-01-10T05:42:58;63.20;;;33.13;;
52866;SDS011;38739;53.324;6.862;2024-01-10T05:45:27;63.53;;;32.53;;
52866;SDS011;38739;53.324;6.862;2024-01-10T05:47:53;63.25;;;33.20;;
52866;SDS011;38739;53.324;6.862;2024-01-10T05:50:19;61.35;;;31.92;;
52866;SDS011;38739;53.324;6.862;2024-01-10T05:52:46;59.97;;;30.83;;
52866;SDS011;38739;53.324;6.862;2024-01-10T05:55:12;62.47;;;31.88;;
52866;SDS011;38739;53.324;6.862;2024-01-10T05:57:38;58.47;;;31.08;;
52866;SDS011;38739;53.324;6.862;2024-01-10T06:00:04;59.42;;;31.33;;
52866;SDS011;38739;53.324;6.862;2024-01-10T06:02:37;58.47;;;29.48;;
52866;SDS011;38739;53.324;6.862;2024-01-10T06:05:09;56.78;;;29.25;;
52866;SDS011;38739;53.324;6.862;2024-01-10T06:07:36;55.20;;;29.20;;
52866;SDS011;38739;53.324;6.862;2024-01-10T06:10:02;58.17;;;30.45;;
52866;SDS011;38739;53.324;6.862;2024-01-10T06:12:28;57.78;;;29.85;;
52866;SDS011;38739;53.324;6.862;2024-01-10T06:14:54;60.08;;;30.83;;
52866;SDS011;38739;53.324;6.862;2024-01-10T06:17:20;61.33;;;30.15;;
52866;SDS011;38739;53.324;6.862;2024-01-10T06:19:46;61.15;;;30.77;;
52866;SDS011;38739;53.324;6.862;2024-01-10T06:22:12;58.58;;;30.48;;
52866;SDS011;38739;53.324;6.862;2024-01-10T06:24:37;59.90;;;30.00;;
52866;SDS011;38739;53.324;6.862;2024-01-10T06:27:04;55.85;;;29.90;;
52866;SDS011;38739;53.324;6.862;2024-01-10T06:29:31;62.00;;;31.02;;
52866;SDS011;38739;53.324;6.862;2024-01-10T06:31:57;58.75;;;30.15;;
52866;SDS011;38739;53.324;6.862;2024-01-10T06:34:23;62.55;;;30.05;;
52866;SDS011;38739;53.324;6.862;2024-01-10T06:36:49;63.88;;;31.35;;
52866;SDS011;38739;53.324;6.862;2024-01-10T06:39:15;58.63;;;30.60;;
52866;SDS011;38739;53.324;6.862;2024-01-10T06:41:42;60.67;;;29.85;;
52866;SDS011;38739;53.324;6.862;2024-01-10T06:44:09;61.90;;;31.17;;
52866;SDS011;38739;53.324;6.862;2024-01-10T06:46:34;64.15;;;30.77;;
52866;SDS011;38739;53.324;6.862;2024-01-10T06:49:00;63.10;;;29.98;;
52866;SDS011;38739;53.324;6.862;2024-01-10T06:51:26;59.83;;;29.15;;
52866;SDS011;38739;53.324;6.862;2024-01-10T06:53:52;60.20;;;28.00;;
52866;SDS011;38739;53.324;6.862;2024-01-10T06:56:18;55.42;;;27.80;;
52866;SDS011;38739;53.324;6.862;2024-01-10T06:58:44;58.60;;;27.20;;
52866;SDS011;38739;53.324;6.862;2024-01-10T07:01:13;60.03;;;27.65;;
52866;SDS011;38739;53.324;6.862;2024-01-10T07:03:39;65.55;;;27.63;;
52866;SDS011;38739;53.324;6.862;2024-01-10T07:06:05;62.45;;;28.45;;
52866;SDS011;38739;53.324;6.862;2024-01-10T07:08:31;61.35;;;27.77;;
52866;SDS011;38739;53.324;6.862;2024-01-10T07:10:57;63.45;;;28.77;;
52866;SDS011;38739;53.324;6.862;2024-01-10T07:13:23;61.80;;;27.83;;
52866;SDS011;38739;53.324;6.862;2024-01-10T07:15:49;65.32;;;29.30;;
52866;SDS011;38739;53.324;6.862;2024-01-10T07:18:17;64.43;;;28.13;;
52866;SDS011;38739;53.324;6.862;2024-01-10T07:20:43;60.83;;;26.80;;
52866;SDS011;38739;53.324;6.862;2024-01-10T07:23:09;64.43;;;27.70;;
52866;SDS011;38739;53.324;6.862;2024-01-10T07:25:35;62.13;;;26.83;;
52866;SDS011;38739;53.324;6.862;2024-01-10T07:28:02;68.63;;;27.33;;
52866;SDS011;38739;53.324;6.862;2024-01-10T07:30:28;64.97;;;25.50;;
52866;SDS011;38739;53.324;6.862;2024-01-10T07:32:58;68.93;;;26.70;;
52866;SDS011;38739;53.324;6.862;2024-01-10T07:35:24;73.20;;;27.55;;
52866;SDS011;38739;53.324;6.862;2024-01-10T07:37:50;74.35;;;27.08;;
52866;SDS011;38739;53.324;6.862;2024-01-10T07:40:16;73.35;;;28.27;;
52866;SDS011;38739;53.324;6.862;2024-01-10T07:42:42;68.07;;;26.30;;
52866;SDS011;38739;53.324;6.862;2024-01-10T07:45:08;69.25;;;26.10;;
52866;SDS011;38739;53.324;6.862;2024-01-10T07:47:34;69.20;;;25.38;;
52866;SDS011;38739;53.324;6.862;2024-01-10T07:50:11;70.03;;;25.00;;
52866;SDS011;38739;53.324;6.862;2024-01-10T07:52:40;64.82;;;23.77;;
52866;SDS011;38739;53.324;6.862;2024-01-10T07:55:07;67.15;;;24.20;;
52866;SDS011;38739;53.324;6.862;2024-01-10T07:57:33;65.45;;;23.23;;
52866;SDS011;38739;53.324;6.862;2024-01-10T08:00:00;65.85;;;22.83;;
52866;SDS011;38739;53.324;6.862;2024-01-10T08:02:28;67.38;;;23.55;;
52866;SDS011;38739;53.324;6.862;2024-01-10T08:04:59;60.65;;;21.70;;
52866;SDS011;38739;53.324;6.862;2024-01-10T08:07:33;58.33;;;20.95;;
52866;SDS011;38739;53.324;6.862;2024-01-10T08:10:03;60.05;;;21.35;;
52866;SDS011;38739;53.324;6.862;2024-01-10T08:12:29;58.10;;;20.70;;
52866;SDS011;38739;53.324;6.862;2024-01-10T08:14:55;55.90;;;20.75;;
52866;SDS011;38739;53.324;6.862;2024-01-10T08:17:21;57.50;;;20.40;;
52866;SDS011;38739;53.324;6.862;2024-01-10T08:19:46;58.35;;;21.20;;
52866;SDS011;38739;53.324;6.862;2024-01-10T08:22:12;57.40;;;20.20;;
52866;SDS011;38739;53.324;6.862;2024-01-10T08:24:38;60.72;;;20.98;;
52866;SDS011;38739;53.324;6.862;2024-01-10T08:27:04;55.45;;;20.13;;
52866;SDS011;38739;53.324;6.862;2024-01-10T08:29:29;61.00;;;21.48;;
52866;SDS011;38739;53.324;6.862;2024-01-10T08:31:56;50.90;;;19.70;;
52866;SDS011;38739;53.324;6.862;2024-01-10T08:34:22;57.30;;;21.02;;
52866;SDS011;38739;53.324;6.862;2024-01-10T08:36:49;51.15;;;19.17;;
52866;SDS011;38739;53.324;6.862;2024-01-10T08:39:18;57.10;;;19.98;;
52866;SDS011;38739;53.324;6.862;2024-01-10T08:41:44;52.83;;;19.05;;
52866;SDS011;38739;53.324;6.862;2024-01-10T08:44:10;57.22;;;20.38;;
52866;SDS011;38739;53.324;6.862;2024-01-10T08:46:36;53.08;;;19.27;;
52866;SDS011;38739;53.324;6.862;2024-01-10T08:49:02;54.15;;;19.27;;
52866;SDS011;38739;53.324;6.862;2024-01-10T08:51:28;50.22;;;18.77;;
52866;SDS011;38739;53.324;6.862;2024-01-10T08:53:54;53.15;;;20.27;;
52866;SDS011;38739;53.324;6.862;2024-01-10T08:56:20;52.97;;;18.58;;
52866;SDS011;38739;53.324;6.862;2024-01-10T08:58:45;49.90;;;19.08;;
52866;SDS011;38739;53.324;6.862;2024-01-10T09:01:12;48.40;;;18.15;;
52866;SDS011;38739;53.324;6.862;2024-01-10T09:03:37;48.47;;;19.15;;
52866;SDS011;38739;53.324;6.862;2024-01-10T09:06:04;50.95;;;18.13;;
52866;SDS011;38739;53.324;6.862;2024-01-10T09:08:30;49.88;;;18.25;;
52866;SDS011;38739;53.324;6.862;2024-01-10T09:10:56;49.35;;;18.67;;
52866;SDS011;38739;53.324;6.862;2024-01-10T09:13:21;50.70;;;18.73;;
52866;SDS011;38739;53.324;6.862;2024-01-10T09:15:47;52.03;;;18.73;;
52866;SDS011;38739;53.324;6.862;2024-01-10T09:18:13;50.63;;;18.35;;
52866;SDS011;38739;53.324;6.862;2024-01-10T09:20:38;48.33;;;18.00;;
52866;SDS011;38739;53.324;6.862;2024-01-10T09:23:04;45.15;;;17.83;;
52866;SDS011;38739;53.324;6.862;2024-01-10T09:25:30;48.55;;;17.15;;
52866;SDS011;38739;53.324;6.862;2024-01-10T09:27:55;45.30;;;18.00;;
52866;SDS011;38739;53.324;6.862;2024-01-10T09:30:21;45.67;;;17.65;;
52866;SDS011;38739;53.324;6.862;2024-01-10T09:32:49;47.80;;;18.27;;
52866;SDS011;38739;53.324;6.862;2024-01-10T09:35:15;43.55;;;16.63;;
52866;SDS011;38739;53.324;6.862;2024-01-10T09:37:41;48.65;;;17.10;;
52866;SDS011;38739;53.324;6.862;2024-01-10T09:40:07;42.05;;;16.23;;
52866;SDS011;38739;53.324;6.862;2024-01-10T09:42:34;40.05;;;16.38;;
52866;SDS011;38739;53.324;6.862;2024-01-10T09:45:01;42.83;;;16.33;;
52866;SDS011;38739;53.324;6.862;2024-01-10T09:47:30;42.60;;;16.63;;
52866;SDS011;38739;53.324;6.862;2024-01-10T09:49:58;40.65;;;16.38;;
52866;SDS011;38739;53.324;6.862;2024-01-10T09:52:27;38.55;;;15.38;;
52866;SDS011;38739;53.324;6.862;2024-01-10T09:54:54;35.08;;;14.68;;
52866;SDS011;38739;53.324;6.862;2024-01-10T09:57:24;38.05;;;15.40;;
52866;SDS011;38739;53.324;6.862;2024-01-10T09:59:50;34.45;;;14.70;;
52866;SDS011;38739;53.324;6.862;2024-01-10T10:02:17;35.55;;;14.70;;
52866;SDS011;38739;53.324;6.862;2024-01-10T10:08:10;37.42;;;14.85;;
52866;SDS011;38739;53.324;6.862;2024-01-10T10:10:31;31.60;;;13.70;;
52866;SDS011;38739;53.324;6.862;2024-01-10T10:12:57;34.38;;;14.57;;
52866;SDS011;38739;53.324;6.862;2024-01-10T10:15:24;38.17;;;14.50;;
52866;SDS011;38739;53.324;6.862;2024-01-10T10:17:53;32.75;;;13.20;;
52866;SDS011;38739;53.324;6.862;2024-01-10T10:20:24;30.67;;;13.27;;
52866;SDS011;38739;53.324;6.862;2024-01-10T10:25:34;33.22;;;14.02;;
52866;SDS011;38739;53.324;6.862;2024-01-10T10:28:01;31.85;;;13.65;;
52866;SDS011;38739;53.324;6.862;2024-01-10T10:30:28;27.98;;;13.52;;
52866;SDS011;38739;53.324;6.862;2024-01-10T10:32:55;28.65;;;13.23;;
52866;SDS011;38739;53.324;6.862;2024-01-10T10:35:21;32.28;;;14.88;;
52866;SDS011;38739;53.324;6.862;2024-01-10T10:37:51;30.33;;;14.73;;
52866;SDS011;38739;53.324;6.862;2024-01-10T10:40:17;28.38;;;14.10;;
52866;SDS011;38739;53.324;6.862;2024-01-10T10:42:45;30.27;;;14.13;;
52866;SDS011;38739;53.324;6.862;2024-01-10T10:45:14;32.33;;;15.35;;
52866;SDS011;38739;53.324;6.862;2024-01-10T10:47:45;28.10;;;13.77;;
52866;SDS011;38739;53.324;6.862;2024-01-10T10:50:18;29.60;;;14.30;;
52866;SDS011;38739;53.324;6.862;2024-01-10T10:52:48;30.33;;;14.88;;
52866;SDS011;38739;53.324;6.862;2024-01-10T10:55:16;29.10;;;14.73;;
52866;SDS011;38739;53.324;6.862;2024-01-10T10:57:46;30.17;;;15.43;;
52866;SDS011;38739;53.324;6.862;2024-01-10T11:00:13;29.00;;;15.52;;
52866;SDS011;38739;53.324;6.862;2024-01-10T11:02:41;27.35;;;14.82;;
52866;SDS011;38739;53.324;6.862;2024-01-10T11:05:09;26.48;;;14.23;;
52866;SDS011;38739;53.324;6.862;2024-01-10T11:07:42;26.35;;;14.50;;
52866;SDS011;38739;53.324;6.862;2024-01-10T11:10:14;28.52;;;14.82;;
52866;SDS011;38739;53.324;6.862;2024-01-10T11:24:32;29.90;;;15.77;;
52866;SDS011;38739;53.324;6.862;2024-01-10T11:29:38;29.77;;;15.65;;
52866;SDS011;38739;53.324;6.862;2024-01-10T11:32:17;27.40;;;14.30;;
52866;SDS011;38739;53.324;6.862;2024-01-10T11:37:19;25.33;;;14.00;;
52866;SDS011;38739;53.324;6.862;2024-01-10T11:39:45;28.13;;;14.57;;
52866;SDS011;38739;53.324;6.862;2024-01-10T11:42:11;26.17;;;13.65;;
52866;SDS011;38739;53.324;6.862;2024-01-10T11:44:50;27.33;;;13.60;;
52866;SDS011;38739;53.324;6.862;2024-01-10T11:47:16;28.80;;;14.50;;
52866;SDS011;38739;53.324;6.862;2024-01-10T11:49:54;27.40;;;13.40;;
52866;SDS011;38739;53.324;6.862;2024-01-10T11:52:22;26.35;;;13.10;;
52866;SDS011;38739;53.324;6.862;2024-01-10T11:54:49;27.45;;;13.60;;
52866;SDS011;38739;53.324;6.862;2024-01-10T11:59:50;26.33;;;12.70;;
52866;SDS011;38739;53.324;6.862;2024-01-10T12:02:20;27.15;;;12.98;;
52866;SDS011;38739;53.324;6.862;2024-01-10T12:04:47;27.92;;;12.88;;
52866;SDS011;38739;53.324;6.862;2024-01-10T12:07:13;26.42;;;13.20;;
52866;SDS011;38739;53.324;6.862;2024-01-10T12:09:40;25.80;;;13.20;;
52866;SDS011;38739;53.324;6.862;2024-01-10T12:12:07;28.25;;;14.05;;
52866;SDS011;38739;53.324;6.862;2024-01-10T12:14:33;27.70;;;12.82;;
52866;SDS011;38739;53.324;6.862;2024-01-10T12:16:59;27.90;;;12.75;;
52866;SDS011;38739;53.324;6.862;2024-01-10T12:19:25;27.30;;;13.55;;
52866;SDS011;38739;53.324;6.862;2024-01-10T12:21:51;26.92;;;13.23;;
52866;SDS011;38739;53.324;6.862;2024-01-10T12:24:17;28.13;;;13.75;;
52866;SDS011;38739;53.324;6.862;2024-01-10T12:26:44;27.60;;;13.20;;
52866;SDS011;38739;53.324;6.862;2024-01-10T12:29:10;25.83;;;12.80;;
52866;SDS011;38739;53.324;6.862;2024-01-10T12:31:36;27.25;;;13.35;;
52866;SDS011;38739;53.324;6.862;2024-01-10T12:34:04;26.95;;;13.13;;
52866;SDS011;38739;53.324;6.862;2024-01-10T12:36:32;30.33;;;12.77;;
52866;SDS011;38739;53.324;6.862;2024-01-10T12:38:58;28.00;;;13.15;;
52866;SDS011;38739;53.324;6.862;2024-01-10T12:41:23;28.13;;;13.13;;
52866;SDS011;38739;53.324;6.862;2024-01-10T12:43:49;29.30;;;12.88;;
52866;SDS011;38739;53.324;6.862;2024-01-10T12:46:18;28.00;;;13.40;;
52866;SDS011;38739;53.324;6.862;2024-01-10T12:48:43;26.55;;;12.63;;
52866;SDS011;38739;53.324;6.862;2024-01-10T12:51:10;29.48;;;13.68;;
52866;SDS011;38739;53.324;6.862;2024-01-10T12:56:04;33.50;;;15.38;;
52866;SDS011;38739;53.324;6.862;2024-01-10T12:58:30;29.63;;;13.75;;
52866;SDS011;38739;53.324;6.862;2024-01-10T13:00:56;33.75;;;15.27;;
52866;SDS011;38739;53.324;6.862;2024-01-10T13:03:22;26.58;;;13.10;;
52866;SDS011;38739;53.324;6.862;2024-01-10T13:05:49;28.13;;;13.98;;
52866;SDS011;38739;53.324;6.862;2024-01-10T13:08:17;28.63;;;13.32;;
52866;SDS011;38739;53.324;6.862;2024-01-10T13:10:46;27.33;;;12.27;;
52866;SDS011;38739;53.324;6.862;2024-01-10T13:13:13;30.27;;;14.05;;
52866;SDS011;38739;53.324;6.862;2024-01-10T13:15:47;28.75;;;13.02;;
52866;SDS011;38739;53.324;6.862;2024-01-10T13:18:13;25.20;;;12.55;;
52866;SDS011;38739;53.324;6.862;2024-01-10T13:20:40;27.48;;;13.07;;
52866;SDS011;38739;53.324;6.862;2024-01-10T13:23:06;28.42;;;12.98;;
52866;SDS011;38739;53.324;6.862;2024-01-10T13:25:33;29.27;;;12.15;;
52866;SDS011;38739;53.324;6.862;2024-01-10T13:27:59;23.55;;;11.55;;
52866;SDS011;38739;53.324;6.862;2024-01-10T13:30:26;26.77;;;12.63;;
52866;SDS011;38739;53.324;6.862;2024-01-10T13:32:52;29.42;;;12.63;;
52866;SDS011;38739;53.324;6.862;2024-01-10T13:35:18;27.60;;;12.20;;
52866;SDS011;38739;53.324;6.862;2024-01-10T13:37:47;24.90;;;11.05;;
52866;SDS011;38739;53.324;6.862;2024-01-10T13:40:12;24.02;;;11.38;;
52866;SDS011;38739;53.324;6.862;2024-01-10T13:42:42;22.90;;;10.52;;
52866;SDS011;38739;53.324;6.862;2024-01-10T13:45:08;21.92;;;11.55;;
52866;SDS011;38739;53.324;6.862;2024-01-10T13:47:38;22.08;;;11.30;;
52866;SDS011;38739;53.324;6.862;2024-01-10T13:50:08;23.95;;;12.02;;
52866;SDS011;38739;53.324;6.862;2024-01-10T13:52:37;22.77;;;11.40;;
52866;SDS011;38739;53.324;6.862;2024-01-10T13:55:03;23.08;;;11.57;;
52866;SDS011;38739;53.324;6.862;2024-01-10T13:57:32;23.15;;;11.90;;
52866;SDS011;38739;53.324;6.862;2024-01-10T13:59:58;24.05;;;12.10;;
52866;SDS011;38739;53.324;6.862;2024-01-10T14:02:24;24.67;;;12.23;;
52866;SDS011;38739;53.324;6.862;2024-01-10T14:04:50;24.75;;;12.13;;
52866;SDS011;38739;53.324;6.862;2024-01-10T14:07:17;24.35;;;12.02;;
52866;SDS011;38739;53.324;6.862;2024-01-10T14:09:43;24.73;;;12.38;;
52866;SDS011;38739;53.324;6.862;2024-01-10T14:12:10;30.63;;;14.10;;
52866;SDS011;38739;53.324;6.862;2024-01-10T14:14:37;26.42;;;12.68;;
52866;SDS011;38739;53.324;6.862;2024-01-10T14:17:02;25.77;;;12.48;;
52866;SDS011;38739;53.324;6.862;2024-01-10T14:19:29;26.58;;;12.20;;
52866;SDS011;38739;53.324;6.862;2024-01-10T14:21:55;23.85;;;12.43;;
52866;SDS011;38739;53.324;6.862;2024-01-10T14:24:21;26.90;;;13.00;;
52866;SDS011;38739;53.324;6.862;2024-01-10T14:26:46;22.55;;;11.38;;
52866;SDS011;38739;53.324;6.862;2024-01-10T14:29:12;22.92;;;11.48;;
52866;SDS011;38739;53.324;6.862;2024-01-10T14:31:38;24.67;;;12.25;;
52866;SDS011;38739;53.324;6.862;2024-01-10T14:34:05;27.65;;;14.27;;
52866;SDS011;38739;53.324;6.862;2024-01-10T14:36:31;69.93;;;34.05;;
52866;SDS011;38739;53.324;6.862;2024-01-10T14:38:57;49.22;;;23.80;;
52866;SDS011;38739;53.324;6.862;2024-01-10T14:41:22;67.65;;;29.27;;
52866;SDS011;38739;53.324;6.862;2024-01-10T14:43:48;56.33;;;27.00;;
52866;SDS011;38739;53.324;6.862;2024-01-10T14:46:14;42.58;;;22.33;;